ADDS METAR Data INFO
IDs: Format: Raw Decoded Include TAF

Data at: 0929 UTC 25 Feb 2018

KVCT 250851Z AUTO 00000KT 5SM BR OVC007 22/21 A2989 RMK AO2 SLP119 60015 T02220206 58015
KVCT 250751Z AUTO 15010KT 5SM BR OVC009 22/21 A2989 RMK AO2 CIG 006V012 SLP120 T02220211
KVCT 250717Z AUTO 16008KT 7SM BKN010 BKN016 22/21 A2993 RMK AO2 LTG DSNT N CIG 009V013 T02220206
KVCT 250710Z AUTO 18006KT 7SM SCT012 BKN017 22/21 A2993 RMK AO2 LTG DSNT N-E T02220206
KVCT 250651Z AUTO 19008KT 7SM FEW008 SCT120 22/21 A2993 RMK AO2 LTG DSNT NW-E RAB02E34 TSB03E31 SLP133 P0015 T02220206
KVCT 250641Z AUTO 18007KT 8SM VCTS FEW008 SCT023 OVC120 22/21 A2992 RMK AO2 LTG DSNT NW-E RAB02E34 TSB03E31 P0015 T02220206
KVCT 250631Z AUTO VRB06KT 7SM VCTS -RA SCT010 BKN027 OVC110 22/21 A2991 RMK AO2 LTG DSNT NW-E RAB02 TSB03E31 P0015 T02220206
KVCT 250626Z AUTO 20007G21KT 160V230 4SM -TSRA BR FEW008 BKN012 OVC120 22/21 A2991 RMK AO2 LTG DSNT NW-E RAB02 TSB03 P0015 T02220206
KVCT 250611Z AUTO 19006KT 2 1/2SM +TSRA BR OVC013 22/21 A2994 RMK AO2 LTG DSNT SW AND W RAB02 TSB03 P0003 T02220206
KVCT 250605Z AUTO 20006KT 5SM TSRA BR BKN013 OVC018 23/21 A2994 RMK AO2 LTG DSNT SW AND W RAB02 TSB03 P0000 T02280206
KVCT 250551Z AUTO 18007KT 8SM VCTS OVC016 23/21 A2993 RMK AO2 LTG DSNT SW SLP134 T02280206 10239 20217 402720217 50012
KVCT 250530Z AUTO 18008KT 8SM OVC015 22/21 A2993 RMK AO2 LTG DSNT W T02220206
KVCT 250451Z AUTO 00000KT 8SM BKN012 OVC017 22/20 A2994 RMK AO2 SLP138 T02220200
KVCT 250351Z AUTO 15004KT 8SM BKN010 22/20 A2993 RMK AO2 SLP132 T02220200
KVCT 250259Z 18004KT 8SM BKN010 22/20 A2991 RMK AO2 PRESRR T02170200
KVCT 250251Z 16005KT 8SM SCT010 22/20 A2990 RMK AO2 PRESRR SLP122 T02170200 53013
KVCT 250151Z 15010KT 8SM SCT011 22/20 A2987 RMK AO2 SLP113 T02220200
KVCT 250051Z 15011KT 9SM FEW034 22/20 A2985 RMK AO2 SLP107 T02220200
KVCT 250039Z 17013KT 9SM SCT018 SCT034 23/19 A2986 RMK AO2 T02330194
KVCT 250001Z 18012KT 8SM BKN020 OVC029 24/20 A2986 RMK AO2 T02390200
KVCT 242351Z 17013KT 9SM SCT020 OVC030 24/19 A2986 RMK AO2 SLP109 T02390194 10261 20239 53005
KVCT 242333Z 18013KT 10SM BKN030 OVC038 24/19 A2986 RMK AO2 T02440194
KVCT 242321Z 19014KT 10SM BKN029 BKN039 24/19 A2986 RMK AO2 T02440194
KVCT 242251Z 18017G20KT 10SM FEW019 BKN041 OVC065 24/19 A2985 RMK AO2 SLP105 T02440194
KVCT 242243Z 18011KT 9SM FEW021 BKN041 OVC065 24/19 A2985 RMK AO2 T02440194
KVCT 242235Z 18010G20KT 9SM BKN028 BKN037 OVC065 25/19 A2985 RMK AO2 T02500194
KVCT 242151Z 18016KT 10SM SCT035 OVC060 25/20 A2984 RMK AO2 SLP103 T02500200
KVCT 242051Z 18018G25KT 10SM SCT029 BKN039 OVC050 25/19 A2984 RMK AO2 PK WND 19026/2034 SLP104 T02500194 56022
KVCT 242039Z 19017G26KT 10SM FEW023 BKN031 OVC042 25/19 A2984 RMK AO2 PK WND 19026/2034 T02500194
KVCT 242031Z 19016G24KT 10SM FEW022 BKN027 OVC045 25/19 A2985 RMK AO2 T02500194
KVCT 241951Z 18015G26KT 10SM SCT026 BKN034 OVC044 26/19 A2987 RMK AO2 PK WND 18030/1904 SLP111 T02560189
KVCT 241934Z 18017G23KT 10SM BKN026 BKN033 OVC041 26/19 A2987 RMK AO2 PK WND 18030/1904 T02560189
KVCT 241925Z 19016G27KT 10SM SCT026 BKN035 OVC050 26/19 A2988 RMK AO2 PK WND 18030/1904 T02560189
KVCT 241915Z 18019G28KT 10SM BKN024 BKN030 OVC047 26/19 A2988 RMK AO2 PK WND 18030/1904 T02560189
KVCT 241851Z 18017G27KT 10SM SCT027 BKN036 OVC048 26/19 A2989 RMK AO2 PK WND 18033/1832 SLP118 T02560189
KVCT 241751Z 18022G31KT 10SM SCT025 BKN034 OVC044 26/19 A2991 RMK AO2 PK WND 19033/1735 SLP127 T02610194 10272 20222 58004
KVCT 241729Z 18025G33KT 10SM FEW019 BKN030 OVC039 27/19 A2991 RMK AO2 PK WND 17033/1725 T02670189
KVCT 241651Z 16019G25KT 10SM BKN017 BKN033 OVC042 25/19 A2993 RMK AO2 PK WND 16032/1615 SLP134 T02500194
KVCT 241623Z 17019G32KT 10SM BKN015 BKN033 OVC042 26/19 A2993 RMK AO2 PK WND 16032/1615 T02560194
KVCT 241616Z 17024G32KT 10SM SCT015 BKN033 OVC042 26/19 A2993 RMK AO2 PK WND 16032/1615 T02560194
KVCT 241551Z 17020G29KT 9SM BKN015 OVC029 24/20 A2993 RMK AO2 PK WND 18031/1533 SLP132 T02440200
KVCT 241532Z 17023G30KT 9SM BKN015 OVC023 24/20 A2993 RMK AO2 PK WND 16030/1516 T02440200
KVCT 241451Z 17019KT 8SM BKN010 OVC015 23/21 A2992 RMK AO2 PK WND 18026/1450 CIG 008V013 SLP131 T02330206 56002
KVCT 241431Z 18016G22KT 7SM BKN010 BKN014 OVC019 23/21 A2993 RMK AO2 T02280206
KVCT 241351Z 17016KT 6SM BR SCT009 BKN015 OVC021 22/20 A2993 RMK AO2 SLP134 T02220200
KVCT 241335Z 18010KT 6SM BR BKN009 BKN014 OVC019 22/21 A2994 RMK AO2 CIG 007V013 T02220206
KVCT 241322Z 17014KT 7SM BKN010 BKN016 OVC028 22/21 A2993 RMK AO2 CIG 007V013 T02220206
KVCT 241315Z 17013KT 7SM BKN008 BKN014 OVC031 22/21 A2994 RMK AO2 CIG 007V013 T02220206
KVCT 241251Z 15013KT 7SM BKN013 BKN020 OVC032 22/20 A2992 RMK AO2 SLP129 T02220200
KVCT 241151Z AUTO 17012KT 9SM BKN013 BKN018 OVC029 22/20 A2993 RMK AO2 SLP133 T02220200 10228 20222 56002
KVCT 241051Z AUTO 17011KT 9SM SCT021 OVC026 23/20 A2992 RMK AO2 SLP131 T02280200
KVCT 241020Z AUTO 17013KT 8SM FEW010 SCT016 OVC028 23/20 A2993 RMK AO2 T02280200
KVCT 240951Z AUTO 18011KT 8SM BKN013 OVC022 22/21 A2993 RMK AO2 SLP135 T02220206
KVCT 240851Z AUTO 16014KT 6SM BR BKN013 OVC028 22/21 A2994 RMK AO2 SLP135 T02220206 58014
KVCT 240827Z AUTO 17012KT 5SM BR BKN013 BKN020 OVC027 22/21 A2995 RMK AO2 T02220206
KVCT 240815Z AUTO 17012KT 5SM BR SCT010 BKN016 OVC027 22/21 A2996 RMK AO2 T02220206
KVCT 240751Z AUTO 17013KT 6SM BR BKN011 BKN014 OVC026 23/21 A2997 RMK AO2 CIG 008V012 SLP148 T02280206
KVCT 240732Z AUTO 18014KT 6SM BR SCT010 SCT016 OVC024 23/21 A2998 RMK AO2 T02280206
KVCT 240651Z AUTO 16014KT 7SM BKN011 BKN017 OVC024 23/21 A2997 RMK AO2 SLP148 T02280206
KVCT 240634Z AUTO 15012KT 8SM BKN011 BKN016 OVC025 22/21 A2997 RMK AO2 CIG 007V013 T02220206
KVCT 240551Z AUTO 15013KT 8SM SCT008 BKN017 OVC026 22/21 A2998 RMK AO2 SLP150 T02220206 10233 20211 402830094 58012
KVCT 240531Z AUTO 15011KT 7SM SCT008 BKN018 OVC026 22/21 A2999 RMK AO2 T02220206
KVCT 240451Z AUTO 15012KT 7SM BKN008 OVC013 22/21 A3000 RMK AO2 CIG 006V010 SLP156 T02220206
KVCT 240351Z 15012KT 7SM OVC008 22/20 A3001 RMK AO2 CIG 006V011 SLP159 T02170200
KVCT 240251Z 15014KT 7SM OVC007 22/20 A3001 RMK AO2 CIG 005V008 SLP162 T02170200 55001
KVCT 240230Z 14012KT 7SM BKN007 OVC013 22/20 A3001 RMK AO2 T02170200
KVCT 240214Z 14011KT 7SM SCT009 BKN013 OVC020 22/20 A3001 RMK AO2 T02170200
KVCT 240151Z 13011KT 7SM BKN014 OVC021 21/19 A3001 RMK AO2 SLP159 T02110194
KVCT 240122Z 13009KT 8SM BKN014 OVC021 21/19 A3001 RMK AO2 T02110194
KVCT 240058Z 13010KT 9SM BKN019 OVC025 22/19 A3001 RMK AO2 T02170194
KVCT 240051Z 13009KT 9SM FEW011 22/19 A3001 RMK AO2 SLP161 T02170194
KVCT 232351Z 15011KT 10SM CLR 23/18 A3002 RMK AO2 SLP163 T02330183 10283 20228 55008
KVCT 232251Z 14017KT 10SM SCT040 26/18 A3001 RMK AO2 SLP162 T02560178
KVCT 232154Z 17017G23KT 10SM SCT040 27/17 A3003 RMK AO2 T02720167
KVCT 232151Z 16018G23KT 10SM CLR 27/17 A3003 RMK AO2 SLP167 T02720167